Accueil
METAR-TAF:

METAR-TAF

Aéroports :

Meiringen, Suisse

latitude: 46-44-25N, longitude: 8-06-36E, altitude: 577 m

Observation

Le bulletin a été fait il y a 1 heure et 18 minutes, à 03:50 UTC
Vent 2 kt de direction variable
Température 0°C
Humidité 100%
Pression 1022 hPa
Visibilité: 2700 m
Quelques nuages à une hauteur de 1700 ft
Nuages fragmentés à une hauteur de 2300 ft
neige faible

METAR: LSMM 180350Z AUTO VRB02KT 2700NDV -SN FEW017 BKN023 00/M00 Q1022 RMK

Heure: 06:08 (05:08 UTC)


TAF: absent

Observations et prévisions météorologiques de plus de 4000 aéroports (messages METAR et TAF).

Les stations disponibles sont représentées par des disques jaunes et rouges sur la carte.

Passer la souris dessus pour voir le nom de la station.

Cliquer dessus pour voir les observations et prévisions météorologiques.

Pour changer de carte: cliquez sur les boutons verts avec une croix noire pour zoomer, sur le bouton vert avec un tiret pour effectuer un zoom arrière, ou sur les flèches vertes pour les cartes adjacentes.


METAR-TAF: